createdAt,value
2022-12-16T00:01:39.246Z,19.25
2022-12-16T00:04:05.913Z,18.80
2022-12-16T00:06:34.314Z,18.10
2022-12-16T00:09:01.716Z,17.13
2022-12-16T00:11:31.904Z,17.90
2022-12-16T00:13:58.622Z,16.23
2022-12-16T00:16:25.280Z,13.40
2022-12-16T00:18:52.144Z,16.33
2022-12-16T00:21:19.704Z,12.20
2022-12-16T00:23:46.529Z,15.75
2022-12-16T00:26:13.564Z,12.48
2022-12-16T00:28:40.674Z,14.38
2022-12-16T00:31:07.720Z,14.82
2022-12-16T00:33:34.824Z,14.73
2022-12-16T00:36:01.863Z,14.40
2022-12-16T00:38:28.529Z,13.18
2022-12-16T00:40:55.226Z,15.75
2022-12-16T00:43:22.311Z,15.90
2022-12-16T00:45:49.370Z,14.18
2022-12-16T00:48:22.963Z,14.13
2022-12-16T00:50:52.205Z,14.88
2022-12-16T00:53:20.729Z,14.00
2022-12-16T00:55:47.385Z,14.27
2022-12-16T00:58:14.425Z,14.65
2022-12-16T01:00:41.533Z,14.50
2022-12-16T01:03:08.800Z,14.93
2022-12-16T01:05:38.833Z,13.15
2022-12-16T01:08:05.603Z,14.88
2022-12-16T01:10:32.298Z,14.52
2022-12-16T01:12:58.883Z,12.95
2022-12-16T01:15:25.534Z,13.55
2022-12-16T01:17:52.104Z,16.38
2022-12-16T01:20:18.865Z,15.18
2022-12-16T01:22:46.200Z,15.85
2022-12-16T01:25:13.017Z,14.05
2022-12-16T01:27:39.847Z,14.35
2022-12-16T01:30:07.400Z,16.17
2022-12-16T01:32:33.985Z,13.48
2022-12-16T01:35:00.557Z,15.73
2022-12-16T01:37:27.291Z,13.30
2022-12-16T01:39:53.946Z,16.25
2022-12-16T01:42:22.742Z,15.07
2022-12-16T01:44:52.111Z,14.02
2022-12-16T01:47:28.151Z,14.40
2022-12-16T01:50:04.400Z,15.52
2022-12-16T01:52:36.974Z,14.55
2022-12-16T01:55:12.113Z,15.00
2022-12-16T01:57:45.726Z,14.88
2022-12-16T02:00:13.233Z,15.63
2022-12-16T02:02:43.794Z,15.65
2022-12-16T02:05:22.022Z,15.35
2022-12-16T02:08:15.000Z,17.52
2022-12-16T02:10:44.812Z,17.02
2022-12-16T02:13:29.627Z,16.75
2022-12-16T02:16:17.205Z,13.93
2022-12-16T02:19:22.066Z,14.60
2022-12-16T02:22:16.899Z,17.38
2022-12-16T02:25:11.720Z,15.23
2022-12-16T02:28:16.723Z,13.55
2022-12-16T02:31:21.031Z,14.80
2022-12-16T02:33:57.586Z,15.38
2022-12-16T02:37:08.169Z,17.70
2022-12-16T02:39:38.303Z,14.07
2022-12-16T02:42:16.484Z,14.98
2022-12-16T02:45:02.897Z,11.43
2022-12-16T02:47:31.086Z,12.98
2022-12-16T02:49:57.834Z,14.75
2022-12-16T02:52:27.999Z,14.18
2022-12-16T02:55:05.144Z,14.02
2022-12-16T02:57:31.744Z,15.75
2022-12-16T03:00:12.963Z,13.45
2022-12-16T03:02:57.783Z,12.65
2022-12-16T03:05:36.634Z,16.05
2022-12-16T03:08:09.060Z,16.20
2022-12-16T03:10:41.285Z,13.70
2022-12-16T03:13:10.646Z,14.25
2022-12-16T03:15:39.584Z,12.25
2022-12-16T03:18:09.110Z,13.52
2022-12-16T03:20:41.517Z,14.27
2022-12-16T03:23:13.867Z,14.15
2022-12-16T03:25:45.060Z,14.40
2022-12-16T03:28:27.952Z,13.63
2022-12-16T03:31:09.436Z,13.70
2022-12-16T03:33:47.591Z,14.13
2022-12-16T03:36:22.020Z,12.82
2022-12-16T03:38:50.405Z,14.88
2022-12-16T03:41:19.006Z,12.98
2022-12-16T03:43:46.230Z,12.30
2022-12-16T03:46:14.565Z,13.65
2022-12-16T03:48:51.776Z,13.23
2022-12-16T03:51:19.904Z,13.75
2022-12-16T03:53:46.714Z,13.80
2022-12-16T03:56:13.541Z,12.10
2022-12-16T03:58:40.381Z,13.80
2022-12-16T04:01:09.310Z,14.07
2022-12-16T04:03:39.461Z,14.18
2022-12-16T04:06:06.739Z,12.35
2022-12-16T04:08:33.335Z,12.65
2022-12-16T04:11:18.347Z,13.90
2022-12-16T04:14:03.673Z,12.65
2022-12-16T04:16:49.619Z,11.90
2022-12-16T04:19:45.275Z,12.63
2022-12-16T04:22:34.310Z,12.63
2022-12-16T04:25:34.026Z,14.32
2022-12-16T04:28:00.668Z,14.90
2022-12-16T04:30:28.757Z,13.57
2022-12-16T04:33:17.798Z,12.82
2022-12-16T04:36:03.617Z,12.38
2022-12-16T04:38:50.085Z,13.57
2022-12-16T04:41:35.529Z,13.82
2022-12-16T04:44:21.624Z,12.40
2022-12-16T04:47:07.074Z,12.48
2022-12-16T04:49:52.622Z,14.10
2022-12-16T04:52:38.149Z,12.20
2022-12-16T04:55:24.599Z,13.13
2022-12-16T04:58:15.027Z,14.57
2022-12-16T05:01:01.063Z,12.18
2022-12-16T05:03:46.366Z,11.20
2022-12-16T05:06:32.965Z,12.98
2022-12-16T05:09:18.786Z,12.48
2022-12-16T05:12:04.114Z,12.90
2022-12-16T05:14:49.722Z,11.88
2022-12-16T05:17:35.127Z,11.48
2022-12-16T05:20:21.211Z,10.90
2022-12-16T05:23:06.688Z,10.52
2022-12-16T05:25:52.123Z,10.98
2022-12-16T05:28:37.583Z,10.88
2022-12-16T05:31:23.113Z,10.05
2022-12-16T05:34:08.482Z,8.82
2022-12-16T05:36:53.887Z,12.77
2022-12-16T05:39:39.296Z,11.93
2022-12-16T05:42:24.784Z,12.77
2022-12-16T05:45:10.216Z,11.27
2022-12-16T05:47:55.695Z,12.65
2022-12-16T05:50:41.218Z,13.30
2022-12-16T05:53:26.527Z,11.50
2022-12-16T05:56:11.877Z,13.15
2022-12-16T05:59:00.335Z,12.63
2022-12-16T06:01:45.963Z,11.13
2022-12-16T06:04:31.247Z,8.85
2022-12-16T06:07:16.556Z,11.23
2022-12-16T06:10:01.963Z,11.70
2022-12-16T06:12:47.324Z,10.25
2022-12-16T06:15:32.849Z,12.32
2022-12-16T06:18:18.373Z,11.45
2022-12-16T06:21:03.707Z,10.95
2022-12-16T06:23:49.488Z,12.75
2022-12-16T06:26:34.400Z,12.43
2022-12-16T06:29:19.973Z,10.40
2022-12-16T06:32:05.485Z,9.63
2022-12-16T06:34:50.840Z,11.20
2022-12-16T06:37:36.334Z,11.60
2022-12-16T06:40:21.873Z,11.18
2022-12-16T06:43:07.357Z,10.95
2022-12-16T06:45:52.817Z,10.20
2022-12-16T06:48:38.180Z,11.32
2022-12-16T06:51:23.680Z,11.20
2022-12-16T06:54:09.014Z,11.02
2022-12-16T06:56:54.420Z,12.02
2022-12-16T06:59:39.865Z,12.63
2022-12-16T07:02:29.065Z,11.07
2022-12-16T07:05:14.656Z,10.55
2022-12-16T07:08:09.151Z,10.00
2022-12-16T07:10:57.974Z,9.45
2022-12-16T07:13:46.699Z,11.07
2022-12-16T07:16:32.179Z,10.48
2022-12-16T07:19:17.474Z,11.98
2022-12-16T07:22:02.803Z,10.90
2022-12-16T07:24:48.122Z,9.20
2022-12-16T07:27:33.602Z,10.95
2022-12-16T07:30:18.990Z,11.20
2022-12-16T07:33:08.239Z,10.70
2022-12-16T07:35:53.425Z,12.90
2022-12-16T07:38:38.766Z,12.15
2022-12-16T07:41:24.200Z,12.20
2022-12-16T07:44:09.544Z,12.18
2022-12-16T07:46:55.169Z,12.95
2022-12-16T07:49:40.482Z,11.82
2022-12-16T07:52:25.817Z,11.27
2022-12-16T07:55:11.212Z,11.23
2022-12-16T07:57:56.689Z,11.00
2022-12-16T08:00:42.073Z,12.30
2022-12-16T08:03:27.396Z,10.57
2022-12-16T08:06:12.562Z,11.80
2022-12-16T08:08:58.047Z,10.07
2022-12-16T08:11:43.365Z,12.80
2022-12-16T08:14:28.822Z,10.57
2022-12-16T08:17:14.207Z,9.95
2022-12-16T08:19:59.407Z,11.18
2022-12-16T08:22:44.960Z,11.48
2022-12-16T08:25:30.349Z,14.20
2022-12-16T08:28:15.857Z,11.27
2022-12-16T08:31:01.435Z,12.20
2022-12-16T08:33:46.780Z,11.88
2022-12-16T08:36:32.108Z,12.65
2022-12-16T08:39:17.623Z,12.35
2022-12-16T08:42:03.128Z,12.75
2022-12-16T08:44:48.551Z,11.57
2022-12-16T08:47:33.970Z,12.45
2022-12-16T08:50:19.460Z,13.40
2022-12-16T08:53:05.030Z,12.93
2022-12-16T08:55:50.162Z,15.15
2022-12-16T08:58:37.512Z,13.55
2022-12-16T09:01:22.920Z,13.73
2022-12-16T09:04:08.191Z,14.38
2022-12-16T09:06:53.700Z,14.75
2022-12-16T09:09:38.862Z,16.35
2022-12-16T09:12:24.379Z,14.63
2022-12-16T09:15:09.806Z,14.68
2022-12-16T09:17:55.133Z,15.35
2022-12-16T09:20:47.369Z,16.85
2022-12-16T09:23:33.368Z,16.45
2022-12-16T09:26:18.831Z,14.45
2022-12-16T09:29:04.265Z,15.18
2022-12-16T09:31:49.732Z,15.30
2022-12-16T09:34:35.155Z,16.25
2022-12-16T09:37:20.554Z,18.05
2022-12-16T09:40:06.047Z,19.10
2022-12-16T09:43:06.746Z,18.15
2022-12-16T09:46:02.485Z,13.88
2022-12-16T09:49:20.162Z,15.32
2022-12-16T09:52:06.720Z,16.05
2022-12-16T09:54:55.089Z,14.35
2022-12-16T09:57:43.336Z,16.80
2022-12-16T10:00:39.756Z,14.57
2022-12-16T10:03:39.884Z,16.10
2022-12-16T10:07:04.680Z,14.95
2022-12-16T10:09:59.309Z,14.18
2022-12-16T10:12:47.324Z,14.27
2022-12-16T10:15:51.994Z,14.38
2022-12-16T10:19:04.842Z,14.98
2022-12-16T10:22:15.943Z,15.13
2022-12-16T10:25:25.237Z,15.55
2022-12-16T10:28:16.815Z,16.55
2022-12-16T10:31:01.968Z,17.15
2022-12-16T10:33:48.582Z,13.20
2022-12-16T10:36:41.077Z,13.20
2022-12-16T10:39:43.035Z,15.30
2022-12-16T10:42:44.147Z,15.20
2022-12-16T10:45:52.239Z,14.85
2022-12-16T10:48:51.428Z,16.08
2022-12-16T10:51:43.298Z,16.52
2022-12-16T10:54:50.963Z,18.15
2022-12-16T10:57:49.660Z,14.32
2022-12-16T11:00:38.370Z,15.20
2022-12-16T11:03:42.300Z,15.35
2022-12-16T11:06:29.479Z,15.55
2022-12-16T11:09:14.790Z,16.97
2022-12-16T11:12:00.095Z,16.13
2022-12-16T11:15:05.974Z,15.50
2022-12-16T11:17:53.507Z,19.93
2022-12-16T11:20:43.687Z,18.40
2022-12-16T11:23:39.147Z,15.20
2022-12-16T11:26:36.843Z,15.50
2022-12-16T11:29:35.978Z,15.07
2022-12-16T11:32:42.927Z,17.10
2022-12-16T11:35:37.047Z,17.00
2022-12-16T11:38:24.739Z,16.73
2022-12-16T11:41:11.095Z,16.77
2022-12-16T11:43:58.930Z,17.97
2022-12-16T11:46:46.013Z,17.13
2022-12-16T11:49:40.855Z,17.30
2022-12-16T11:52:38.108Z,18.03
2022-12-16T11:56:03.669Z,18.30
2022-12-16T11:58:44.458Z,18.50
2022-12-16T12:01:48.365Z,17.70
2022-12-16T12:04:34.956Z,18.43
2022-12-16T12:07:45.809Z,18.50
2022-12-16T12:10:56.289Z,20.53
2022-12-16T12:14:12.299Z,18.47
2022-12-16T12:17:24.391Z,21.30
2022-12-16T12:20:36.609Z,18.53
2022-12-16T12:23:26.177Z,18.27
2022-12-16T12:26:32.636Z,19.10
2022-12-16T12:29:34.112Z,20.67
2022-12-16T12:32:53.268Z,22.07
2022-12-16T12:36:18.226Z,20.40
2022-12-16T12:39:21.615Z,20.13
2022-12-16T12:42:17.758Z,20.70
2022-12-16T12:46:04.509Z,19.98
2022-12-16T12:49:06.582Z,19.75
2022-12-16T12:52:08.336Z,19.38
2022-12-16T12:55:12.067Z,19.30
2022-12-16T12:58:02.681Z,20.33
2022-12-16T13:00:55.238Z,23.48
2022-12-16T13:04:00.113Z,21.98
2022-12-16T13:06:46.231Z,22.42
2022-12-16T13:09:51.224Z,23.30
2022-12-16T13:12:50.600Z,22.20
2022-12-16T13:15:39.986Z,23.63
2022-12-16T13:18:25.359Z,21.80
2022-12-16T13:21:13.228Z,23.65
2022-12-16T13:24:17.329Z,21.85
2022-12-16T13:27:19.254Z,21.42
2022-12-16T13:30:36.016Z,20.73
2022-12-16T13:33:40.073Z,20.55
2022-12-16T13:36:25.948Z,20.73
2022-12-16T13:39:14.472Z,21.67
2022-12-16T13:41:59.729Z,21.95
2022-12-16T13:45:12.548Z,20.50
2022-12-16T13:48:00.397Z,22.15
2022-12-16T13:51:06.628Z,21.60
2022-12-16T13:54:13.504Z,21.63
2022-12-16T13:57:04.450Z,24.25
2022-12-16T13:59:51.482Z,22.50
2022-12-16T14:02:49.473Z,22.13
2022-12-16T14:05:42.638Z,18.27
2022-12-16T14:08:51.823Z,22.25
2022-12-16T14:11:54.769Z,22.30
2022-12-16T14:14:49.774Z,19.70
2022-12-16T14:17:53.837Z,21.10
2022-12-16T14:20:55.226Z,19.95
2022-12-16T14:24:00.594Z,18.77
2022-12-16T14:26:46.929Z,19.05
2022-12-16T14:29:45.457Z,19.35
2022-12-16T14:32:43.763Z,20.05
2022-12-16T14:35:36.784Z,19.85
2022-12-16T14:38:41.463Z,18.33
2022-12-16T14:41:39.355Z,17.92
2022-12-16T14:44:41.160Z,18.15
2022-12-16T14:47:38.105Z,17.33
2022-12-16T14:50:47.268Z,17.95
2022-12-16T14:53:38.550Z,20.23
2022-12-16T14:56:50.380Z,20.15
2022-12-16T14:59:38.615Z,23.83
2022-12-16T15:02:44.971Z,18.73
2022-12-16T15:05:32.178Z,20.33
2022-12-16T15:08:18.928Z,18.40
2022-12-16T15:11:04.607Z,18.42
2022-12-16T15:13:53.073Z,18.10
2022-12-16T15:16:46.152Z,16.85
2022-12-16T15:19:36.383Z,15.10
2022-12-16T15:22:21.997Z,14.27
2022-12-16T15:25:07.560Z,12.20
2022-12-16T15:27:55.420Z,13.52
2022-12-16T15:30:55.766Z,12.52
2022-12-16T15:33:44.466Z,13.45
2022-12-16T15:36:48.325Z,14.40
2022-12-16T15:39:44.620Z,13.90
2022-12-16T15:42:39.719Z,12.80
2022-12-16T15:45:35.788Z,12.93
2022-12-16T15:48:48.203Z,13.65
2022-12-16T15:51:50.986Z,12.02
2022-12-16T15:54:43.213Z,13.80
2022-12-16T15:57:52.758Z,12.95
2022-12-16T16:00:45.498Z,13.20
2022-12-16T16:03:50.669Z,13.13
2022-12-16T16:06:37.509Z,13.32
2022-12-16T16:09:38.586Z,14.40
2022-12-16T16:12:24.046Z,13.80
2022-12-16T16:15:11.602Z,12.35
2022-12-16T16:17:57.024Z,12.20
2022-12-16T16:20:47.982Z,12.10
2022-12-16T16:23:33.863Z,13.13
2022-12-16T16:26:19.389Z,14.52
2022-12-16T16:29:06.530Z,12.48
2022-12-16T16:31:52.257Z,12.85
2022-12-16T16:34:37.424Z,12.60
2022-12-16T16:37:34.481Z,12.75
2022-12-16T16:40:20.696Z,14.32
2022-12-16T16:43:06.216Z,13.88
2022-12-16T16:45:51.469Z,13.55
2022-12-16T16:48:36.937Z,11.95
2022-12-16T16:51:23.006Z,13.20
2022-12-16T16:54:08.387Z,13.38
2022-12-16T16:56:55.731Z,12.48
2022-12-16T16:59:42.800Z,12.88
2022-12-16T17:02:46.917Z,12.02
2022-12-16T17:05:32.562Z,13.00
2022-12-16T17:08:18.245Z,13.45
2022-12-16T17:11:05.994Z,12.07
2022-12-16T17:13:52.437Z,11.98
2022-12-16T17:16:37.972Z,13.18
2022-12-16T17:19:23.408Z,15.38
2022-12-16T17:22:08.964Z,13.35
2022-12-16T17:24:54.704Z,13.77
2022-12-16T17:27:44.953Z,14.90
2022-12-16T17:30:46.531Z,15.85
2022-12-16T17:33:35.377Z,17.15
2022-12-16T17:36:20.697Z,15.20
2022-12-16T17:39:06.199Z,13.93
2022-12-16T17:41:52.117Z,16.25
2022-12-16T17:44:43.015Z,12.10
2022-12-16T17:47:29.454Z,14.98
2022-12-16T17:50:14.939Z,14.50
2022-12-16T17:53:00.373Z,13.50
2022-12-16T17:55:45.988Z,13.20
2022-12-16T17:58:32.037Z,13.48
2022-12-16T18:01:25.146Z,14.40
2022-12-16T18:04:10.475Z,14.10
2022-12-16T18:06:55.889Z,14.88
2022-12-16T18:09:41.257Z,13.50
2022-12-16T18:12:26.690Z,13.00
2022-12-16T18:15:12.270Z,12.60
2022-12-16T18:17:57.642Z,14.90
2022-12-16T18:20:43.279Z,14.23
2022-12-16T18:23:28.428Z,12.48
2022-12-16T18:26:19.717Z,12.88
2022-12-16T18:29:06.239Z,15.02
2022-12-16T18:31:53.995Z,16.35
2022-12-16T18:34:46.260Z,13.68
2022-12-16T18:37:31.972Z,14.70
2022-12-16T18:40:17.568Z,15.73
2022-12-16T18:43:04.202Z,13.30
2022-12-16T18:45:49.780Z,15.10
2022-12-16T18:48:35.208Z,13.85
2022-12-16T18:51:20.713Z,15.73
2022-12-16T18:54:09.171Z,17.35
2022-12-16T18:56:54.505Z,14.15
2022-12-16T18:59:39.781Z,13.57
2022-12-16T19:02:25.450Z,12.98
2022-12-16T19:05:10.629Z,13.63
2022-12-16T19:07:55.974Z,13.73
2022-12-16T19:10:42.518Z,16.45
2022-12-16T19:13:32.165Z,22.70
2022-12-16T19:16:17.610Z,17.77
2022-12-16T19:19:03.056Z,15.45
2022-12-16T19:21:52.125Z,14.90
2022-12-16T19:24:41.641Z,19.85
2022-12-16T19:27:27.075Z,21.77
2022-12-16T19:30:12.593Z,20.25
2022-12-16T19:32:58.897Z,20.33
2022-12-16T19:35:44.488Z,18.17
2022-12-16T19:38:33.470Z,19.75
2022-12-16T19:41:18.867Z,18.92
2022-12-16T19:44:06.496Z,21.20
2022-12-16T19:46:55.852Z,18.75
2022-12-16T19:49:44.424Z,19.25
2022-12-16T19:52:30.477Z,19.40
2022-12-16T19:55:17.868Z,18.02
2022-12-16T19:58:03.145Z,22.30
2022-12-16T20:00:48.672Z,17.25
2022-12-16T20:03:37.874Z,19.70
2022-12-16T20:06:26.995Z,21.38
2022-12-16T20:09:13.301Z,18.55
2022-12-16T20:11:59.045Z,20.55
2022-12-16T20:14:44.670Z,17.05
2022-12-16T20:17:30.060Z,17.80
2022-12-16T20:20:15.321Z,18.75
2022-12-16T20:23:06.439Z,18.90
2022-12-16T20:25:51.831Z,18.38
2022-12-16T20:28:37.331Z,21.00
2022-12-16T20:31:36.645Z,18.35
2022-12-16T20:34:22.135Z,19.45
2022-12-16T20:37:07.621Z,18.55
2022-12-16T20:39:56.834Z,21.17
2022-12-16T20:42:43.999Z,19.35
2022-12-16T20:45:29.519Z,22.08
2022-12-16T20:48:14.887Z,18.65
2022-12-16T20:51:00.566Z,19.23
2022-12-16T20:53:45.821Z,21.40
2022-12-16T20:56:31.293Z,19.85
2022-12-16T20:59:16.753Z,19.58
2022-12-16T21:05:07.371Z,21.17
2022-12-16T21:07:53.524Z,21.92
2022-12-16T21:10:38.801Z,22.75
2022-12-16T21:13:28.709Z,26.48
2022-12-16T21:16:16.128Z,26.83
2022-12-16T21:19:01.685Z,24.55
2022-12-16T21:21:47.189Z,27.98
2022-12-16T21:24:32.654Z,27.45
2022-12-16T21:27:18.159Z,28.75
2022-12-16T21:30:03.665Z,24.63
2022-12-16T21:32:49.104Z,24.65
2022-12-16T21:35:34.791Z,23.15
2022-12-16T21:38:20.246Z,25.52
2022-12-16T21:41:12.447Z,26.98
2022-12-16T21:43:57.828Z,25.13
2022-12-16T21:46:43.403Z,24.00
2022-12-16T21:49:28.865Z,22.60
2022-12-16T21:52:14.331Z,24.55
2022-12-16T21:54:59.536Z,25.95
2022-12-16T21:57:44.821Z,25.73
2022-12-16T22:00:30.990Z,27.50
2022-12-16T22:03:16.322Z,25.70
2022-12-16T22:06:02.052Z,24.55
2022-12-16T22:08:47.447Z,27.98
2022-12-16T22:11:32.926Z,27.23
2022-12-16T22:14:18.420Z,25.83
2022-12-16T22:17:05.424Z,28.13
2022-12-16T22:19:50.968Z,30.23
2022-12-16T22:22:36.977Z,25.27
2022-12-16T22:25:22.545Z,25.77
2022-12-16T22:28:09.828Z,24.42
2022-12-16T22:30:56.279Z,25.77
2022-12-16T22:33:41.901Z,25.02
2022-12-16T22:36:29.053Z,22.08
2022-12-16T22:39:14.492Z,23.27
2022-12-16T22:41:59.914Z,24.17
2022-12-16T22:44:45.382Z,23.70
2022-12-16T22:47:30.943Z,20.60
2022-12-16T22:50:16.444Z,17.10
2022-12-16T22:53:01.843Z,17.88
2022-12-16T22:55:48.200Z,15.40
2022-12-16T22:58:33.686Z,17.88
2022-12-16T23:01:24.901Z,17.75
2022-12-16T23:04:10.236Z,17.88
2022-12-16T23:06:56.215Z,18.20
2022-12-16T23:09:41.719Z,17.92
2022-12-16T23:12:27.125Z,19.05
2022-12-16T23:15:14.604Z,17.85
2022-12-16T23:17:59.935Z,20.00
2022-12-16T23:20:45.445Z,18.05
2022-12-16T23:23:31.542Z,17.55
2022-12-16T23:26:18.584Z,18.70
2022-12-16T23:29:07.769Z,17.27
2022-12-16T23:31:54.062Z,18.17
2022-12-16T23:34:45.945Z,16.33
2022-12-16T23:37:31.862Z,17.00
2022-12-16T23:40:17.232Z,17.50
2022-12-16T23:43:02.719Z,19.77
2022-12-16T23:45:48.049Z,15.85
2022-12-16T23:48:33.200Z,17.40
2022-12-16T23:51:18.568Z,18.30
2022-12-16T23:54:04.140Z,19.02
2022-12-16T23:56:49.857Z,17.73
2022-12-16T23:59:35.013Z,17.95
